createdAt,value
2022-11-25T00:01:24.601Z,4.35
2022-11-25T00:03:54.234Z,3.85
2022-11-25T00:06:30.079Z,4.20
2022-11-25T00:09:03.508Z,4.07
2022-11-25T00:11:30.729Z,4.47
2022-11-25T00:13:58.719Z,4.45
2022-11-25T00:16:29.460Z,4.30
2022-11-25T00:18:58.874Z,4.25
2022-11-25T00:21:32.600Z,3.43
2022-11-25T00:24:04.622Z,4.30
2022-11-25T00:26:34.037Z,3.65
2022-11-25T00:29:03.566Z,3.50
2022-11-25T00:31:34.270Z,3.53
2022-11-25T00:34:01.520Z,3.28
2022-11-25T00:36:31.884Z,3.20
2022-11-25T00:39:07.169Z,3.00
2022-11-25T00:41:52.512Z,3.28
2022-11-25T00:44:40.834Z,3.70
2022-11-25T00:47:12.903Z,2.83
2022-11-25T00:49:42.956Z,2.67
2022-11-25T00:52:13.213Z,3.08
2022-11-25T00:54:40.758Z,2.92
2022-11-25T00:57:08.107Z,2.95
2022-11-25T00:59:35.448Z,3.00
2022-11-25T01:02:02.726Z,2.55
2022-11-25T01:04:29.998Z,2.72
2022-11-25T01:07:00.242Z,2.95
2022-11-25T01:09:28.319Z,2.67
2022-11-25T01:11:55.594Z,2.67
2022-11-25T01:14:23.917Z,2.30
2022-11-25T01:16:51.370Z,2.60
2022-11-25T01:19:20.052Z,2.70
2022-11-25T01:21:47.534Z,2.50
2022-11-25T01:24:16.377Z,2.38
2022-11-25T01:26:45.231Z,2.40
2022-11-25T01:29:18.748Z,2.22
2022-11-25T01:31:46.773Z,2.35
2022-11-25T01:34:17.349Z,2.22
2022-11-25T01:36:45.394Z,2.35
2022-11-25T01:39:28.675Z,2.25
2022-11-25T01:41:59.381Z,2.17
2022-11-25T01:44:31.487Z,2.47
2022-11-25T01:47:07.655Z,2.40
2022-11-25T01:49:37.513Z,2.60
2022-11-25T01:52:25.466Z,2.20
2022-11-25T01:55:15.908Z,2.03
2022-11-25T01:58:00.120Z,1.95
2022-11-25T02:00:27.356Z,2.30
2022-11-25T02:02:57.813Z,2.22
2022-11-25T02:06:04.982Z,2.05
2022-11-25T02:08:33.601Z,2.50
2022-11-25T02:11:05.036Z,2.40
2022-11-25T02:13:34.010Z,2.20
2022-11-25T02:16:01.447Z,2.50
2022-11-25T02:18:28.989Z,2.47
2022-11-25T02:20:55.843Z,2.22
2022-11-25T02:23:31.444Z,2.30
2022-11-25T02:25:58.253Z,2.38
2022-11-25T02:28:28.093Z,2.10
2022-11-25T02:30:55.079Z,2.17
2022-11-25T02:33:22.004Z,2.33
2022-11-25T02:35:58.394Z,2.15
2022-11-25T02:38:57.701Z,1.80
2022-11-25T02:41:31.709Z,1.70
2022-11-25T02:43:59.091Z,2.30
2022-11-25T02:46:27.594Z,2.10
2022-11-25T02:49:11.690Z,2.05
2022-11-25T02:51:40.749Z,2.30
2022-11-25T02:54:07.698Z,2.30
2022-11-25T02:56:36.269Z,2.20
2022-11-25T02:59:03.658Z,2.30
2022-11-25T03:01:31.514Z,2.70
2022-11-25T03:03:59.273Z,2.08
2022-11-25T03:06:26.282Z,2.20
2022-11-25T03:08:52.987Z,2.50
2022-11-25T03:11:19.761Z,2.70
2022-11-25T03:13:46.421Z,2.40
2022-11-25T03:16:13.300Z,2.47
2022-11-25T03:18:40.034Z,2.10
2022-11-25T03:21:07.460Z,2.10
2022-11-25T03:23:34.187Z,2.22
2022-11-25T03:26:05.709Z,2.25
2022-11-25T03:28:32.425Z,2.03
2022-11-25T03:30:59.099Z,1.83
2022-11-25T03:33:25.796Z,1.85
2022-11-25T03:35:52.485Z,1.65
2022-11-25T03:38:19.192Z,1.80
2022-11-25T03:40:47.261Z,1.75
2022-11-25T03:43:13.959Z,1.70
2022-11-25T03:45:40.702Z,1.40
2022-11-25T03:48:07.439Z,1.70
2022-11-25T03:50:34.141Z,1.67
2022-11-25T03:53:00.854Z,1.95
2022-11-25T03:55:27.672Z,2.00
2022-11-25T03:57:54.399Z,2.00
2022-11-25T04:00:21.079Z,1.90
2022-11-25T04:02:47.917Z,1.80
2022-11-25T04:05:14.737Z,1.67
2022-11-25T04:07:41.498Z,1.67
2022-11-25T04:10:09.112Z,1.88
2022-11-25T04:12:47.700Z,1.67
2022-11-25T04:15:16.905Z,1.77
2022-11-25T04:17:44.231Z,1.80
2022-11-25T04:20:13.150Z,1.50
2022-11-25T04:22:40.030Z,1.80
2022-11-25T04:25:07.742Z,1.73
2022-11-25T04:27:34.507Z,1.60
2022-11-25T04:30:01.278Z,1.70
2022-11-25T04:32:28.091Z,1.60
2022-11-25T04:34:54.866Z,1.50
2022-11-25T04:37:21.849Z,1.35
2022-11-25T04:39:48.615Z,1.50
2022-11-25T04:42:34.340Z,1.60
2022-11-25T04:47:49.786Z,1.50
2022-11-25T04:50:19.417Z,1.70
2022-11-25T04:52:46.124Z,1.50
2022-11-25T04:55:12.838Z,1.50
2022-11-25T04:57:39.625Z,1.40
2022-11-25T05:00:07.802Z,1.45
2022-11-25T05:02:34.532Z,1.40
2022-11-25T05:05:01.822Z,1.60
2022-11-25T05:07:29.001Z,1.30
2022-11-25T05:09:56.456Z,1.60
2022-11-25T05:12:26.106Z,1.40
2022-11-25T05:14:53.222Z,1.52
2022-11-25T05:17:23.271Z,1.50
2022-11-25T05:19:50.838Z,1.40
2022-11-25T05:22:21.450Z,1.25
2022-11-25T05:24:48.356Z,1.40
2022-11-25T05:27:15.862Z,1.50
2022-11-25T05:29:42.962Z,1.50
2022-11-25T05:32:10.545Z,1.38
2022-11-25T05:34:38.103Z,1.40
2022-11-25T05:37:05.309Z,1.40
2022-11-25T05:39:32.015Z,1.40
2022-11-25T05:41:58.768Z,1.40
2022-11-25T05:44:25.505Z,1.75
2022-11-25T05:46:52.434Z,1.52
2022-11-25T05:49:19.773Z,1.60
2022-11-25T05:51:47.595Z,1.52
2022-11-25T05:54:14.532Z,1.50
2022-11-25T05:56:41.359Z,1.75
2022-11-25T05:59:08.042Z,2.00
2022-11-25T06:01:34.890Z,1.95
2022-11-25T06:04:03.062Z,1.70
2022-11-25T06:06:30.544Z,1.80
2022-11-25T06:08:57.394Z,2.00
2022-11-25T06:11:25.598Z,1.98
2022-11-25T06:13:52.418Z,3.13
2022-11-25T06:16:22.527Z,2.30
2022-11-25T06:21:16.819Z,1.60
2022-11-25T06:23:46.091Z,1.83
2022-11-25T06:26:19.681Z,2.03
2022-11-25T06:28:47.075Z,1.92
2022-11-25T06:31:17.286Z,1.85
2022-11-25T06:33:47.665Z,2.00
2022-11-25T06:36:17.597Z,1.98
2022-11-25T06:38:49.807Z,1.80
2022-11-25T06:41:17.185Z,1.73
2022-11-25T06:43:43.870Z,1.90
2022-11-25T06:46:13.811Z,2.00
2022-11-25T06:48:40.961Z,1.60
2022-11-25T06:51:10.998Z,1.73
2022-11-25T06:53:38.491Z,1.88
2022-11-25T06:56:26.408Z,1.67
2022-11-25T06:58:54.926Z,1.65
2022-11-25T07:01:24.662Z,1.83
2022-11-25T07:03:54.333Z,1.83
2022-11-25T07:06:21.649Z,1.92
2022-11-25T07:08:49.143Z,1.75
2022-11-25T07:11:31.995Z,1.88
2022-11-25T07:14:01.904Z,1.95
2022-11-25T07:16:29.583Z,1.85
2022-11-25T07:18:56.467Z,2.28
2022-11-25T07:21:25.101Z,2.10
2022-11-25T07:23:52.747Z,1.77
2022-11-25T07:26:22.463Z,2.05
2022-11-25T07:28:50.784Z,2.10
2022-11-25T07:31:24.717Z,2.15
2022-11-25T07:34:00.006Z,2.08
2022-11-25T07:36:27.955Z,2.10
2022-11-25T07:38:55.082Z,2.00
2022-11-25T07:41:24.255Z,2.25
2022-11-25T07:43:54.041Z,2.60
2022-11-25T07:46:27.327Z,2.38
2022-11-25T07:48:56.511Z,2.08
2022-11-25T07:51:28.347Z,1.90
2022-11-25T07:53:57.241Z,2.20
2022-11-25T07:56:24.724Z,2.40
2022-11-25T07:58:51.671Z,2.28
2022-11-25T08:01:19.482Z,1.90
2022-11-25T08:03:48.381Z,2.05
2022-11-25T08:06:18.083Z,1.77
2022-11-25T08:08:45.361Z,2.30
2022-11-25T08:11:24.484Z,1.92
2022-11-25T08:13:51.671Z,2.10
2022-11-25T08:16:20.889Z,2.08
2022-11-25T08:18:48.264Z,2.17
2022-11-25T08:21:16.435Z,2.40
2022-11-25T08:23:44.093Z,2.35
2022-11-25T08:26:14.218Z,2.67
2022-11-25T08:28:41.798Z,2.30
2022-11-25T08:31:11.923Z,2.35
2022-11-25T08:36:13.654Z,2.30
2022-11-25T08:38:40.714Z,2.33
2022-11-25T08:41:13.542Z,2.83
2022-11-25T08:43:40.939Z,2.50
2022-11-25T08:46:14.939Z,2.80
2022-11-25T08:48:42.160Z,2.70
2022-11-25T08:51:25.843Z,2.85
2022-11-25T08:53:52.818Z,2.42
2022-11-25T08:56:25.738Z,2.38
2022-11-25T08:58:53.273Z,2.50
2022-11-25T09:01:21.352Z,2.90
2022-11-25T09:03:50.771Z,2.50
2022-11-25T09:06:19.081Z,2.80
2022-11-25T09:08:46.560Z,2.50
2022-11-25T09:11:13.602Z,2.63
2022-11-25T09:13:40.788Z,2.63
2022-11-25T09:16:08.858Z,2.42
2022-11-25T09:18:37.376Z,2.38
2022-11-25T09:21:12.497Z,2.72
2022-11-25T09:23:39.772Z,2.60
2022-11-25T09:26:07.473Z,2.55
2022-11-25T09:28:35.518Z,2.55
2022-11-25T09:31:09.885Z,2.17
2022-11-25T09:33:37.318Z,2.40
2022-11-25T09:36:04.611Z,2.50
2022-11-25T09:38:31.314Z,2.45
2022-11-25T09:41:02.961Z,2.35
2022-11-25T09:43:51.231Z,2.30
2022-11-25T09:46:48.577Z,2.70
2022-11-25T09:49:56.439Z,2.65
2022-11-25T09:52:41.931Z,3.28
2022-11-25T09:55:15.701Z,3.20
2022-11-25T09:58:16.191Z,3.55
2022-11-25T10:00:47.791Z,3.80
2022-11-25T10:03:37.710Z,4.38
2022-11-25T10:06:40.735Z,3.60
2022-11-25T10:09:16.257Z,3.03
2022-11-25T10:11:54.008Z,3.22
2022-11-25T10:14:35.145Z,3.00
2022-11-25T10:17:10.066Z,2.35
2022-11-25T10:19:48.742Z,2.03
2022-11-25T10:22:24.362Z,1.90
2022-11-25T10:24:54.543Z,1.95
2022-11-25T10:27:40.818Z,2.05
2022-11-25T10:30:23.830Z,2.10
2022-11-25T10:33:13.786Z,2.30
2022-11-25T10:35:47.226Z,2.03
2022-11-25T10:38:23.173Z,2.08
2022-11-25T10:40:52.315Z,2.22
2022-11-25T10:43:19.195Z,1.98
2022-11-25T10:46:09.229Z,2.25
2022-11-25T10:48:52.636Z,2.17
2022-11-25T10:51:38.217Z,1.90
2022-11-25T10:54:13.300Z,2.17
2022-11-25T10:56:57.340Z,2.47
2022-11-25T10:59:42.158Z,2.10
2022-11-25T11:02:28.460Z,2.03
2022-11-25T11:05:02.349Z,1.95
2022-11-25T11:07:34.728Z,2.10
2022-11-25T11:10:25.446Z,2.10
2022-11-25T11:13:02.569Z,2.15
2022-11-25T11:15:41.518Z,1.90
2022-11-25T11:18:23.782Z,2.13
2022-11-25T11:20:54.459Z,2.10
2022-11-25T11:23:21.793Z,2.47
2022-11-25T11:26:04.238Z,2.20
2022-11-25T11:28:38.072Z,1.65
2022-11-25T11:31:25.416Z,2.17
2022-11-25T11:34:11.314Z,1.88
2022-11-25T11:37:16.886Z,2.00
2022-11-25T11:40:02.425Z,1.70
2022-11-25T11:42:38.079Z,1.65
2022-11-25T11:45:32.611Z,1.60
2022-11-25T11:48:22.804Z,1.50
2022-11-25T11:51:11.960Z,1.48
2022-11-25T11:53:51.357Z,1.33
2022-11-25T11:56:36.992Z,1.40
2022-11-25T11:59:17.501Z,1.33
2022-11-25T12:02:09.184Z,1.20
2022-11-25T12:04:39.016Z,1.35
2022-11-25T12:07:19.987Z,1.17
2022-11-25T12:10:06.255Z,1.27
2022-11-25T12:12:40.699Z,1.45
2022-11-25T12:15:19.515Z,1.52
2022-11-25T12:17:54.578Z,1.50
2022-11-25T12:20:41.200Z,2.08
2022-11-25T12:23:23.894Z,1.70
2022-11-25T12:25:54.642Z,1.80
2022-11-25T12:28:29.106Z,1.30
2022-11-25T12:31:17.511Z,1.30
2022-11-25T12:33:44.477Z,1.35
2022-11-25T12:36:47.028Z,1.38
2022-11-25T12:39:36.618Z,1.33
2022-11-25T12:42:19.551Z,1.20
2022-11-25T12:44:59.401Z,1.20
2022-11-25T12:47:26.760Z,1.27
2022-11-25T12:49:55.649Z,1.30
2022-11-25T12:52:47.515Z,1.20
2022-11-25T12:55:27.999Z,1.20
2022-11-25T12:58:17.774Z,1.23
2022-11-25T13:01:09.276Z,1.25
2022-11-25T13:03:53.834Z,1.20
2022-11-25T13:06:48.206Z,1.23
2022-11-25T13:09:14.855Z,1.20
2022-11-25T13:11:41.764Z,1.40
2022-11-25T13:14:44.760Z,1.42
2022-11-25T13:17:15.209Z,1.33
2022-11-25T13:19:42.319Z,1.42
2022-11-25T13:22:21.359Z,1.30
2022-11-25T13:24:48.166Z,1.40
2022-11-25T13:27:31.534Z,1.40
2022-11-25T13:30:00.043Z,1.40
2022-11-25T13:32:31.243Z,1.35
2022-11-25T13:35:24.473Z,1.30
2022-11-25T13:37:51.426Z,1.70
2022-11-25T13:40:28.489Z,1.80
2022-11-25T13:42:56.843Z,1.55
2022-11-25T13:45:34.985Z,1.50
2022-11-25T13:48:17.046Z,1.80
2022-11-25T13:51:09.653Z,1.30
2022-11-25T13:53:35.723Z,1.60
2022-11-25T13:56:24.430Z,1.50
2022-11-25T13:59:09.943Z,1.75
2022-11-25T14:02:00.003Z,1.67
2022-11-25T14:04:50.678Z,1.80
2022-11-25T14:07:37.710Z,2.03
2022-11-25T14:10:31.346Z,1.92
2022-11-25T14:13:07.105Z,2.00
2022-11-25T14:15:55.623Z,2.50
2022-11-25T14:19:12.061Z,2.80
2022-11-25T14:21:48.452Z,1.98
2022-11-25T14:24:30.389Z,1.85
2022-11-25T14:26:59.208Z,2.00
2022-11-25T14:29:31.790Z,1.70
2022-11-25T14:32:20.033Z,1.85
2022-11-25T14:35:01.976Z,2.10
2022-11-25T14:38:00.905Z,2.03
2022-11-25T14:40:44.290Z,2.72
2022-11-25T14:43:22.434Z,2.10
2022-11-25T14:46:12.937Z,2.50
2022-11-25T14:48:39.774Z,2.85
2022-11-25T14:51:09.741Z,2.45
2022-11-25T14:53:48.300Z,2.50
2022-11-25T14:56:22.162Z,1.75
2022-11-25T14:58:51.314Z,2.33
2022-11-25T15:01:26.762Z,2.70
2022-11-25T15:04:12.429Z,3.03
2022-11-25T15:06:42.744Z,3.22
2022-11-25T15:09:41.747Z,3.53
2022-11-25T15:12:15.075Z,3.58
2022-11-25T15:14:47.174Z,3.30
2022-11-25T15:17:31.928Z,2.72
2022-11-25T15:20:03.687Z,2.42
2022-11-25T15:22:30.543Z,2.22
2022-11-25T15:25:08.696Z,2.40
2022-11-25T15:27:42.701Z,2.10
2022-11-25T15:30:27.099Z,2.47
2022-11-25T15:32:55.115Z,2.53
2022-11-25T15:35:26.972Z,3.08
2022-11-25T15:37:56.697Z,3.13
2022-11-25T15:40:36.623Z,2.90
2022-11-25T15:43:06.670Z,3.72
2022-11-25T15:45:44.115Z,3.47
2022-11-25T15:48:28.770Z,2.92
2022-11-25T15:51:43.130Z,3.15
2022-11-25T15:54:12.830Z,4.18
2022-11-25T15:56:44.147Z,3.60
2022-11-25T15:59:56.374Z,3.22
2022-11-25T16:02:35.086Z,2.50
2022-11-25T16:05:14.250Z,2.42
2022-11-25T16:07:50.368Z,2.83
2022-11-25T16:10:45.236Z,2.70
2022-11-25T16:13:22.306Z,2.28
2022-11-25T16:16:00.716Z,2.13
2022-11-25T16:18:52.494Z,2.17
2022-11-25T16:21:23.921Z,2.22
2022-11-25T16:24:06.773Z,2.50
2022-11-25T16:26:54.228Z,3.03
2022-11-25T16:29:31.386Z,2.28
2022-11-25T16:31:59.134Z,2.10
2022-11-25T16:34:26.833Z,2.67
2022-11-25T16:36:54.044Z,3.05
2022-11-25T16:39:20.847Z,3.28
2022-11-25T16:41:59.206Z,2.85
2022-11-25T16:44:27.393Z,2.65
2022-11-25T16:46:54.883Z,2.45
2022-11-25T16:49:22.725Z,2.60
2022-11-25T16:51:53.410Z,2.78
2022-11-25T16:54:22.270Z,2.95
2022-11-25T16:56:51.466Z,2.50
2022-11-25T16:59:30.421Z,2.90
2022-11-25T17:01:58.037Z,2.40
2022-11-25T17:04:24.878Z,2.50
2022-11-25T17:07:16.860Z,2.35
2022-11-25T17:09:39.041Z,2.95
2022-11-25T17:12:10.342Z,3.00
2022-11-25T17:14:38.271Z,3.08
2022-11-25T17:17:05.416Z,2.88
2022-11-25T17:19:32.412Z,2.60
2022-11-25T17:21:59.171Z,3.03
2022-11-25T17:24:26.105Z,2.95
2022-11-25T17:27:00.300Z,3.25
2022-11-25T17:29:35.189Z,2.53
2022-11-25T17:32:02.774Z,2.92
2022-11-25T17:34:30.414Z,2.88
2022-11-25T17:36:59.375Z,2.95
2022-11-25T17:39:26.087Z,3.00
2022-11-25T17:41:52.886Z,3.25
2022-11-25T17:44:27.558Z,3.50
2022-11-25T17:46:55.810Z,3.92
2022-11-25T17:49:22.951Z,4.18
2022-11-25T17:51:49.730Z,3.83
2022-11-25T17:54:16.621Z,4.20
2022-11-25T17:56:49.157Z,4.43
2022-11-25T17:59:25.397Z,4.38
2022-11-25T18:01:52.651Z,4.68
2022-11-25T18:04:24.327Z,4.65
2022-11-25T18:06:51.297Z,4.45
2022-11-25T18:09:18.644Z,5.90
2022-11-25T18:11:51.810Z,6.30
2022-11-25T18:14:37.088Z,5.18
2022-11-25T18:17:06.533Z,4.80
2022-11-25T18:19:34.724Z,4.65
2022-11-25T18:22:10.870Z,4.72
2022-11-25T18:24:37.989Z,4.03
2022-11-25T18:27:06.822Z,4.03
2022-11-25T18:29:33.906Z,4.13
2022-11-25T18:32:00.696Z,4.43
2022-11-25T18:34:27.783Z,4.32
2022-11-25T18:36:54.864Z,4.53
2022-11-25T18:39:21.706Z,4.15
2022-11-25T18:41:49.872Z,4.43
2022-11-25T18:44:26.141Z,4.35
2022-11-25T18:46:53.640Z,4.53
2022-11-25T18:49:20.824Z,4.97
2022-11-25T18:51:47.816Z,4.72
2022-11-25T18:54:14.668Z,5.00
2022-11-25T18:56:42.060Z,5.30
2022-11-25T18:59:14.930Z,5.53
2022-11-25T19:01:45.380Z,4.90
2022-11-25T19:04:16.448Z,5.40
2022-11-25T19:06:43.695Z,4.57
2022-11-25T19:09:10.719Z,4.82
2022-11-25T19:11:40.836Z,3.78
2022-11-25T19:14:32.115Z,4.55
2022-11-25T19:17:03.023Z,5.28
2022-11-25T19:19:30.136Z,5.05
2022-11-25T19:21:58.323Z,5.28
2022-11-25T19:24:25.081Z,5.40
2022-11-25T19:26:54.742Z,4.78
2022-11-25T19:29:38.789Z,4.80
2022-11-25T19:32:18.991Z,5.68
2022-11-25T19:34:49.950Z,5.03
2022-11-25T19:37:20.323Z,4.88
2022-11-25T19:42:17.362Z,5.15
2022-11-25T19:44:45.509Z,4.82
2022-11-25T19:47:19.890Z,5.00
2022-11-25T19:49:47.418Z,5.90
2022-11-25T19:52:20.409Z,4.95
2022-11-25T19:54:47.306Z,4.40
2022-11-25T19:57:22.407Z,4.60
2022-11-25T19:59:49.427Z,5.20
2022-11-25T20:02:20.866Z,5.00
2022-11-25T20:04:50.787Z,5.22
2022-11-25T20:07:20.530Z,4.90
2022-11-25T20:09:48.140Z,5.78
2022-11-25T20:12:22.487Z,5.68
2022-11-25T20:14:50.267Z,5.80
2022-11-25T20:17:37.563Z,5.43
2022-11-25T20:20:11.275Z,5.72
2022-11-25T20:22:41.831Z,5.88
2022-11-25T20:25:10.630Z,6.55
2022-11-25T20:27:37.622Z,5.72
2022-11-25T20:30:25.343Z,5.82
2022-11-25T20:32:52.182Z,6.32
2022-11-25T20:35:19.269Z,6.25
2022-11-25T20:37:57.876Z,5.35
2022-11-25T20:40:46.482Z,5.10
2022-11-25T20:43:28.174Z,5.75
2022-11-25T20:45:55.755Z,5.47
2022-11-25T20:48:23.471Z,5.65
2022-11-25T20:50:50.350Z,5.78
2022-11-25T20:53:19.527Z,5.53
2022-11-25T20:55:47.545Z,6.05
2022-11-25T20:58:17.263Z,5.80
2022-11-25T21:00:44.014Z,5.80
2022-11-25T21:03:10.728Z,5.80
2022-11-25T21:05:37.554Z,6.28
2022-11-25T21:08:14.605Z,6.32
2022-11-25T21:10:43.022Z,5.72
2022-11-25T21:13:22.186Z,5.40
2022-11-25T21:15:54.869Z,5.93
2022-11-25T21:18:22.675Z,5.88
2022-11-25T21:20:51.625Z,5.78
2022-11-25T21:23:38.665Z,6.38
2022-11-25T21:26:11.627Z,5.45
2022-11-25T21:28:42.558Z,6.00
2022-11-25T21:31:18.213Z,6.18
2022-11-25T21:33:46.281Z,6.07
2022-11-25T21:36:24.590Z,5.72
2022-11-25T21:38:54.842Z,5.85
2022-11-25T21:43:50.856Z,5.70
2022-11-25T21:46:21.040Z,6.25
2022-11-25T21:48:48.446Z,6.05
2022-11-25T21:51:23.913Z,6.32
2022-11-25T21:53:51.525Z,5.97
2022-11-25T21:56:28.198Z,5.85
2022-11-25T21:58:58.802Z,6.72
2022-11-25T22:01:25.967Z,6.32
2022-11-25T22:03:53.225Z,6.07
2022-11-25T22:06:28.765Z,6.35
2022-11-25T22:08:56.830Z,7.10
2022-11-25T22:11:36.351Z,6.38
2022-11-25T22:14:06.763Z,6.93
2022-11-25T22:16:36.181Z,6.20
2022-11-25T22:19:03.428Z,6.77
2022-11-25T22:21:30.320Z,5.97
2022-11-25T22:23:57.108Z,5.85
2022-11-25T22:26:32.639Z,6.05
2022-11-25T22:29:00.365Z,6.70
2022-11-25T22:31:28.185Z,6.40
2022-11-25T22:33:55.601Z,6.22
2022-11-25T22:36:28.107Z,6.72
2022-11-25T22:38:54.932Z,5.88
2022-11-25T22:41:21.802Z,6.57
2022-11-25T22:43:51.960Z,6.55
2022-11-25T22:46:19.101Z,6.47
2022-11-25T22:48:47.730Z,6.78
2022-11-25T22:51:25.935Z,6.13
2022-11-25T22:53:52.737Z,6.35
2022-11-25T22:56:20.177Z,5.45
2022-11-25T22:58:47.238Z,6.45
2022-11-25T23:01:16.183Z,5.63
2022-11-25T23:03:44.151Z,5.47
2022-11-25T23:06:12.926Z,5.72
2022-11-25T23:08:40.134Z,5.53
2022-11-25T23:11:10.246Z,5.30
2022-11-25T23:13:37.092Z,5.25
2022-11-25T23:16:04.714Z,5.07
2022-11-25T23:18:42.909Z,5.22
2022-11-25T23:21:27.917Z,5.40
2022-11-25T23:23:55.286Z,5.65
2022-11-25T23:26:22.523Z,5.25
2022-11-25T23:28:49.568Z,5.53
2022-11-25T23:31:17.032Z,5.82
2022-11-25T23:33:46.591Z,5.78
2022-11-25T23:36:17.522Z,5.23
2022-11-25T23:38:50.849Z,4.95
2022-11-25T23:41:21.922Z,5.35
2022-11-25T23:43:49.420Z,5.90
2022-11-25T23:46:18.900Z,5.00
2022-11-25T23:48:56.485Z,5.40
2022-11-25T23:51:24.454Z,4.97
2022-11-25T23:53:52.016Z,5.43
2022-11-25T23:56:19.129Z,5.20
2022-11-25T23:58:46.279Z,5.45
